Accueil
METAR-TAF:

METAR-TAF

Aéroports :

Belgrade, Serbie

Aéroport Nikola-Tesla de Belgrade

latitude: 44-49N, longitude: 020-17E, altitude: 96 m

Observation

Le bulletin a été fait il y a 38 minutes, à 12:30 UTC
Vent 9 kt de nord/nord-ouest
Température 8°C
Humidité 53%
Pression 1020 hPa
Visibilité 10 km ou plus
Nuages épars à une hauteur de 4000 ft

METAR: LYBE 261230Z 33009KT 9999 SCT040 08/M01 Q1020 NOSIG

Heure: 15:08 (13:08 UTC)

Prévision

Le bulletin a été fait il y a 2 heures et 8 minutes, à 11:00 UTC
Prévision valable du 26 à 12 UTC au 27 à 12 UTC
Vent 13 kt de nord/nord-est
Visibilité 10 km ou plus
Nuages épars à une hauteur de 3000 ft
Evoluant progressivement
du 26 à 14 UTC au 26 à 17 UTC
Vent 6 kt de nord-ouest

TAF: LYBE 261100Z 2612/2712 02013KT 9999 SCT030 TX10/2613Z TN01/2705Z BECMG 2614/2617 32006KT

Observations et prévisions météorologiques de plus de 4000 aéroports (messages METAR et TAF).

Les stations disponibles sont représentées par des disques jaunes et rouges sur la carte.

Passer la souris dessus pour voir le nom de la station.

Cliquer dessus pour voir les observations et prévisions météorologiques.

Pour changer de carte: cliquez sur les boutons verts avec une croix noire pour zoomer, sur le bouton vert avec un tiret pour effectuer un zoom arrière, ou sur les flèches vertes pour les cartes adjacentes.


METAR-TAF: